Time;durP1;ratioP1;P1;durP2;ratioP2;P2;SDS_P1;SDS_P2;PMS_P1;PMS_P2;Temp;Humidity;BMP_temperature;BMP_pressure;BME280_temperature;BME280_humidity;BME280_pressure;Samples;Min_cycle;Max_cycle;Signal;HPM_P1;HPM_P2
2023/01/09 00:00:07;;;;;;;19.33;12.45;;;5.70;99.90;;;;;;6230989;23;20210;-83
2023/01/09 00:02:33;;;;;;;20.42;12.23;;;5.70;99.90;;;;;;6231537;22;20636;-83
2023/01/09 00:05:00;;;;;;;15.80;11.40;;;5.60;99.90;;;;;;6226515;23;20640;-83
2023/01/09 00:07:28;;;;;;;18.92;11.45;;;5.70;99.90;;;;;;6231836;23;20191;-82
2023/01/09 00:09:55;;;;;;;17.13;12.48;;;5.60;99.90;;;;;;6231050;23;20206;-82
2023/01/09 00:12:22;;;;;;;15.10;12.00;;;5.60;99.90;;;;;;6230273;23;20284;-82
2023/01/09 00:14:49;;;;;;;16.73;11.35;;;5.60;99.90;;;;;;6230201;23;20230;-83
2023/01/09 00:17:15;;;;;;;18.10;12.05;;;5.50;99.90;;;;;;6231454;23;20210;-83
2023/01/09 00:19:42;;;;;;;15.90;11.18;;;5.50;99.90;;;;;;6245355;22;20163;-81
2023/01/09 00:22:09;;;;;;;15.90;11.25;;;5.50;99.90;;;;;;6237032;22;20222;-82
2023/01/09 00:24:37;;;;;;;16.55;11.60;;;5.50;99.90;;;;;;6221226;23;20207;-83
2023/01/09 00:27:05;;;;;;;15.35;12.10;;;5.50;99.90;;;;;;6223322;23;20298;-82
2023/01/09 00:29:32;;;;;;;18.45;12.68;;;5.50;99.90;;;;;;6224011;23;20179;-82
2023/01/09 00:31:59;;;;;;;18.15;12.18;;;5.40;99.90;;;;;;6224936;23;20176;-82
2023/01/09 00:34:26;;;;;;;16.45;11.55;;;5.40;99.90;;;;;;6224823;23;20659;-83
2023/01/09 00:36:55;;;;;;;15.85;11.80;;;5.40;99.90;;;;;;6225434;23;20255;-82
2023/01/09 00:39:21;;;;;;;15.75;12.02;;;5.40;99.90;;;;;;6226368;23;20640;-84
2023/01/09 00:41:54;;;;;;;18.92;13.20;;;5.40;99.90;;;;;;6227243;23;20232;-83
2023/01/09 00:44:26;;;;;;;17.25;12.77;;;5.40;99.90;;;;;;6229315;23;20250;-83
2023/01/09 00:46:56;;;;;;;16.70;12.65;;;5.40;99.90;;;;;;6229041;23;20676;-83
2023/01/09 00:49:24;;;;;;;17.40;12.20;;;5.30;99.90;;;;;;6228762;23;20251;-83
2023/01/09 00:51:52;;;;;;;14.60;10.73;;;5.40;99.90;;;;;;6234652;23;20186;-82
2023/01/09 00:54:20;;;;;;;16.70;11.57;;;5.40;99.90;;;;;;6244293;22;20160;-81
2023/01/09 00:56:47;;;;;;;19.17;12.75;;;5.30;99.90;;;;;;6244301;22;20191;-83
2023/01/09 00:59:15;;;;;;;18.23;12.18;;;5.30;99.90;;;;;;6230064;23;20228;-83
2023/01/09 01:01:42;;;;;;;17.17;12.65;;;5.30;99.90;;;;;;6230170;23;20257;-83
2023/01/09 01:09:38;;;;;;;17.80;14.25;;;5.10;99.90;;;;;;6229880;23;20158;-83
2023/01/09 01:12:05;;;;;;;16.60;13.10;;;5.20;99.90;;;;;;6229746;23;20647;-83
2023/01/09 01:14:34;;;;;;;17.60;12.50;;;5.00;99.90;;;;;;6229183;23;20175;-83
2023/01/09 01:17:01;;;;;;;20.15;13.52;;;4.90;99.90;;;;;;6229685;23;20204;-82
2023/01/09 01:19:28;;;;;;;20.75;14.77;;;4.90;99.90;;;;;;6229156;23;20180;-83
2023/01/09 01:21:55;;;;;;;21.73;14.48;;;4.90;99.90;;;;;;6229239;23;20202;-83
2023/01/09 01:24:22;;;;;;;20.50;14.25;;;4.90;99.90;;;;;;6229935;23;20249;-83
2023/01/09 01:26:49;;;;;;;22.17;13.90;;;4.80;99.90;;;;;;6230360;23;21847;-81
2023/01/09 01:29:16;;;;;;;21.52;13.77;;;4.80;99.90;;;;;;6230158;23;20186;-83
2023/01/09 01:31:44;;;;;;;19.65;13.75;;;4.70;99.90;;;;;;6228890;23;20258;-82
2023/01/09 01:34:11;;;;;;;19.48;14.63;;;4.70;99.90;;;;;;6228864;23;20186;-83
2023/01/09 01:36:38;;;;;;;19.23;14.13;;;4.60;99.90;;;;;;6228983;23;20251;-83
2023/01/09 01:39:05;;;;;;;21.95;14.93;;;4.40;99.90;;;;;;6228633;23;20572;-83
2023/01/09 01:41:31;;;;;;;20.02;14.32;;;4.70;99.90;;;;;;6228333;23;20171;-83
2023/01/09 01:44:00;;;;;;;18.80;15.05;;;4.60;99.90;;;;;;6228964;23;20175;-84
2023/01/09 01:46:27;;;;;;;19.90;12.85;;;4.70;99.90;;;;;;6233247;23;20182;-83
2023/01/09 01:49:03;;;;;;;20.70;14.70;;;4.70;99.90;;;;;;6234776;23;20206;-82
2023/01/09 01:51:33;;;;;;;20.10;13.43;;;4.70;99.90;;;;;;6236530;23;20182;-82
2023/01/09 01:54:04;;;;;;;17.55;13.65;;;4.70;99.90;;;;;;6229294;23;20175;-83
2023/01/09 01:56:37;;;;;;;19.40;14.05;;;4.70;99.90;;;;;;6228024;23;20179;-82
2023/01/09 01:59:09;;;;;;;22.98;14.68;;;4.80;99.90;;;;;;6228325;23;20216;-82
2023/01/09 02:01:39;;;;;;;18.58;13.77;;;4.80;99.90;;;;;;6229297;23;20265;-82
2023/01/09 02:04:08;;;;;;;19.25;12.85;;;4.80;99.90;;;;;;6229937;23;20163;-82
2023/01/09 02:06:37;;;;;;;18.17;14.60;;;4.90;99.90;;;;;;6230664;23;20234;-81
2023/01/09 02:09:05;;;;;;;19.50;12.70;;;4.70;99.90;;;;;;6233063;23;20203;-83
2023/01/09 02:11:33;;;;;;;22.17;14.32;;;4.70;99.90;;;;;;6235205;23;20232;-83
2023/01/09 02:14:01;;;;;;;17.88;12.68;;;4.70;99.90;;;;;;6236106;23;20186;-82
2023/01/09 02:16:40;;;;;;;20.00;14.35;;;4.70;99.90;;;;;;6218474;23;20176;-81
2023/01/09 02:19:25;;;;;;;22.67;14.10;;;5.00;99.90;;;;;;6244454;22;20167;-81
2023/01/09 02:22:03;;;;;;;19.60;13.85;;;4.70;99.90;;;;;;6244624;22;20167;-81
2023/01/09 02:25:00;;;;;;;21.05;14.25;;;4.70;99.90;;;;;;6231286;23;20160;-82
2023/01/09 02:27:56;;;;;;;19.77;14.18;;;4.70;99.90;;;;;;6227241;23;20278;-83
2023/01/09 02:30:32;;;;;;;18.30;13.45;;;4.50;99.90;;;;;;6224256;23;20696;-83
2023/01/09 02:33:07;;;;;;;20.80;14.57;;;4.70;99.90;;;;;;6221669;23;20202;-82
2023/01/09 02:36:00;;;;;;;19.05;14.20;;;4.70;99.90;;;;;;6233495;23;20171;-82
2023/01/09 02:38:34;;;;;;;20.75;14.45;;;4.60;99.90;;;;;;6242820;23;20207;-81
2023/01/09 02:41:08;;;;;;;23.85;16.38;;;4.70;99.90;;;;;;6230205;23;20242;-82
2023/01/09 02:43:35;;;;;;;18.38;14.18;;;4.70;99.90;;;;;;6228687;23;20246;-82
2023/01/09 02:46:03;;;;;;;20.20;14.00;;;4.70;99.90;;;;;;6230674;23;20198;-81
2023/01/09 02:48:31;;;;;;;21.50;14.00;;;4.80;99.90;;;;;;6231943;23;20251;-82
2023/01/09 02:51:10;;;;;;;21.67;14.07;;;4.80;99.90;;;;;;6231709;23;20235;-80
2023/01/09 02:53:58;;;;;;;22.58;14.32;;;4.80;99.90;;;;;;6230099;23;20163;-82
2023/01/09 02:57:06;;;;;;;22.98;15.30;;;4.80;99.90;;;;;;6230507;23;20163;-81
2023/01/09 02:59:41;;;;;;;20.85;13.75;;;4.80;99.90;;;;;;6226167;23;20198;-81
2023/01/09 03:02:28;;;;;;;19.50;14.40;;;4.80;99.90;;;;;;6231026;23;20194;-82
2023/01/09 03:05:03;;;;;;;21.75;13.65;;;4.70;99.90;;;;;;6230942;23;20163;-82
2023/01/09 03:07:35;;;;;;;22.45;15.93;;;4.70;99.90;;;;;;6226096;23;20230;-81
2023/01/09 03:10:10;;;;;;;19.63;13.95;;;4.70;99.90;;;;;;6221805;23;20202;-82
2023/01/09 03:12:38;;;;;;;26.63;16.33;;;4.60;99.90;;;;;;6222063;23;20244;-82
2023/01/09 03:15:08;;;;;;;20.90;14.68;;;4.60;99.90;;;;;;6221596;23;20263;-82
2023/01/09 03:17:40;;;;;;;19.20;13.63;;;4.70;99.90;;;;;;6220031;23;20278;-81
2023/01/09 03:20:10;;;;;;;20.67;15.27;;;4.60;99.90;;;;;;6220149;23;20179;-83
2023/01/09 03:22:39;;;;;;;22.63;14.75;;;4.60;99.90;;;;;;6219834;23;20160;-82
2023/01/09 03:25:07;;;;;;;22.27;14.70;;;4.70;99.90;;;;;;6220287;23;20697;-82
2023/01/09 03:27:34;;;;;;;17.80;12.68;;;4.70;99.90;;;;;;6220280;23;20201;-82
2023/01/09 03:30:00;;;;;;;25.35;15.82;;;4.80;99.90;;;;;;6221803;23;20199;-82
2023/01/09 03:32:27;;;;;;;24.30;16.50;;;4.90;99.90;;;;;;6230595;22;20202;-82
2023/01/09 03:34:56;;;;;;;24.20;14.57;;;5.00;99.90;;;;;;6221442;23;20179;-82
2023/01/09 03:37:22;;;;;;;20.20;13.93;;;5.00;99.90;;;;;;6222853;23;20263;-82
2023/01/09 03:39:49;;;;;;;19.10;15.05;;;5.00;99.90;;;;;;6221640;23;20254;-81
2023/01/09 03:42:16;;;;;;;22.75;15.60;;;5.00;99.90;;;;;;6221948;23;20214;-81
2023/01/09 03:44:43;;;;;;;21.92;15.05;;;5.10;99.90;;;;;;6224720;23;20274;-82
2023/01/09 03:47:09;;;;;;;17.17;14.15;;;5.10;99.90;;;;;;6227482;23;20270;-82
2023/01/09 03:49:36;;;;;;;20.15;14.20;;;4.90;99.90;;;;;;6226807;23;20666;-82
2023/01/09 03:52:05;;;;;;;22.27;13.80;;;5.20;99.90;;;;;;6224660;23;20175;-82
2023/01/09 03:54:32;;;;;;;20.58;13.43;;;5.20;99.90;;;;;;6221295;23;20202;-82
2023/01/09 03:56:58;;;;;;;19.17;14.73;;;5.20;99.90;;;;;;6220956;23;20298;-81
2023/01/09 03:59:25;;;;;;;22.10;14.90;;;5.20;99.90;;;;;;6221257;23;20802;-81
2023/01/09 04:01:52;;;;;;;17.60;13.00;;;5.20;99.90;;;;;;6220907;23;20710;-81
2023/01/09 04:04:19;;;;;;;20.45;13.77;;;5.20;99.90;;;;;;6222344;23;20523;-82
2023/01/09 04:06:46;;;;;;;18.50;14.05;;;5.20;99.90;;;;;;6225209;23;20190;-81
2023/01/09 04:09:14;;;;;;;21.63;15.32;;;5.20;99.90;;;;;;6226570;23;20206;-80
2023/01/09 04:11:41;;;;;;;18.88;14.15;;;5.20;99.90;;;;;;6226344;23;20179;-81
2023/01/09 04:14:07;;;;;;;19.75;14.45;;;5.20;99.90;;;;;;6228403;23;20179;-81
2023/01/09 04:16:34;;;;;;;19.67;14.93;;;5.30;99.90;;;;;;6245129;22;20162;-79
2023/01/09 04:19:01;;;;;;;20.65;14.93;;;5.20;99.90;;;;;;6245091;22;20187;-81
2023/01/09 04:21:28;;;;;;;22.55;16.02;;;5.40;99.90;;;;;;6222255;23;20175;-81
2023/01/09 04:23:55;;;;;;;25.90;16.65;;;5.20;99.90;;;;;;6221285;23;20179;-83
2023/01/09 04:26:23;;;;;;;20.92;14.68;;;5.30;99.90;;;;;;6222134;23;20203;-82
2023/01/09 04:28:50;;;;;;;20.15;15.02;;;5.20;99.90;;;;;;6221720;23;20172;-81
2023/01/09 04:31:17;;;;;;;19.08;15.02;;;5.20;99.90;;;;;;6221983;23;20266;-82
2023/01/09 04:33:43;;;;;;;20.38;14.25;;;5.20;99.90;;;;;;6223634;23;20524;-82
2023/01/09 04:36:10;;;;;;;20.67;13.70;;;5.20;99.90;;;;;;6227652;23;20214;-82
2023/01/09 04:38:37;;;;;;;19.00;14.00;;;5.30;99.90;;;;;;6221971;23;20237;-81
2023/01/09 04:41:04;;;;;;;17.23;13.52;;;5.30;99.90;;;;;;6220681;23;20217;-82
2023/01/09 04:43:32;;;;;;;21.08;15.27;;;5.30;99.90;;;;;;6221329;23;20172;-81
2023/01/09 04:45:59;;;;;;;19.55;14.27;;;5.30;99.90;;;;;;6221512;23;20210;-82
2023/01/09 04:48:26;;;;;;;21.73;16.15;;;5.30;99.90;;;;;;6221762;23;20255;-82
2023/01/09 04:50:52;;;;;;;24.70;15.90;;;5.30;99.90;;;;;;6221643;23;20652;-82
2023/01/09 04:53:19;;;;;;;20.25;15.20;;;5.40;99.90;;;;;;6230170;23;20194;-82
2023/01/09 04:55:46;;;;;;;20.55;14.60;;;5.40;99.90;;;;;;6231435;23;20207;-81
2023/01/09 04:58:13;;;;;;;19.92;14.40;;;;;;;;;;6244658;22;20267;-79
2023/01/09 05:00:41;;;;;;;18.60;13.65;;;5.40;99.90;;;;;;6266733;23;20185;-80
2023/01/09 05:03:08;;;;;;;22.75;13.93;;;5.40;99.90;;;;;;6267562;22;20230;-79
2023/01/09 05:05:35;;;;;;;20.27;15.27;;;5.40;99.90;;;;;;6264801;22;20337;-79
2023/01/09 05:08:02;;;;;;;20.02;14.10;;;5.50;99.90;;;;;;6252284;22;20263;-78
2023/01/09 05:10:28;;;;;;;20.90;13.95;;;5.50;99.90;;;;;;6234962;23;20190;-82
2023/01/09 05:12:55;;;;;;;20.52;14.07;;;5.50;99.90;;;;;;6231002;23;20175;-81
2023/01/09 05:15:22;;;;;;;18.70;14.85;;;5.50;99.90;;;;;;6229348;23;20186;-81
2023/01/09 05:17:50;;;;;;;21.65;15.15;;;5.50;99.90;;;;;;6229049;23;20298;-81
2023/01/09 05:20:17;;;;;;;20.10;13.75;;;5.60;99.90;;;;;;6229048;23;20175;-81
2023/01/09 05:22:44;;;;;;;17.00;13.70;;;5.60;99.90;;;;;;6229579;23;20179;-82
2023/01/09 05:25:11;;;;;;;24.00;15.40;;;5.60;99.90;;;;;;6229166;23;20194;-82
2023/01/09 05:27:37;;;;;;;19.67;15.07;;;5.60;99.90;;;;;;6227171;23;20205;-81
2023/01/09 05:30:05;;;;;;;22.35;15.07;;;5.50;99.90;;;;;;6229608;23;20210;-81
2023/01/09 05:32:32;;;;;;;24.00;16.33;;;5.60;99.90;;;;;;6229054;23;20172;-82
2023/01/09 05:35:00;;;;;;;21.00;16.17;;;5.60;99.90;;;;;;6228422;23;20179;-81
2023/01/09 05:37:27;;;;;;;21.50;16.08;;;5.50;99.90;;;;;;6228539;23;20200;-81
2023/01/09 05:39:53;;;;;;;21.38;15.45;;;5.60;99.90;;;;;;6228822;23;20179;-81
2023/01/09 05:42:20;;;;;;;20.02;14.90;;;5.60;99.90;;;;;;6227684;23;20647;-81
2023/01/09 05:44:47;;;;;;;22.48;16.77;;;5.70;99.90;;;;;;6229044;23;20226;-81
2023/01/09 05:47:14;;;;;;;23.95;16.58;;;5.70;99.90;;;;;;6228968;23;20180;-83
2023/01/09 05:49:41;;;;;;;23.98;16.08;;;5.60;99.90;;;;;;6229072;23;20290;-81
2023/01/09 05:52:09;;;;;;;23.98;17.33;;;5.50;99.90;;;;;;6228864;23;20235;-80
2023/01/09 05:54:36;;;;;;;24.10;17.13;;;5.50;99.90;;;;;;6227558;23;20512;-80
2023/01/09 05:57:03;;;;;;;30.35;17.00;;;5.70;99.90;;;;;;6226875;23;20198;-80
2023/01/09 05:59:29;;;;;;;24.25;17.35;;;5.50;99.90;;;;;;6226630;23;20707;-80
2023/01/09 06:01:56;;;;;;;23.27;15.95;;;5.60;99.90;;;;;;6227020;23;20175;-80
2023/01/09 06:04:23;;;;;;;22.52;17.08;;;5.60;99.90;;;;;;6226704;23;20179;-81
2023/01/09 06:06:50;;;;;;;26.70;16.73;;;5.60;99.90;;;;;;6226617;23;20211;-80
2023/01/09 06:09:18;;;;;;;27.15;17.40;;;5.20;1.00;;;;;;6232601;23;20512;-79
2023/01/09 06:11:45;;;;;;;28.27;17.80;;;5.60;99.90;;;;;;6234084;23;20187;-79
2023/01/09 06:14:12;;;;;;;25.63;16.90;;;5.60;99.90;;;;;;6233573;23;20183;-79
2023/01/09 06:16:38;;;;;;;24.38;16.92;;;5.60;99.90;;;;;;6233767;23;20194;-79
2023/01/09 06:19:05;;;;;;;21.63;15.05;;;5.50;99.90;;;;;;6233248;23;20225;-79
2023/01/09 06:21:32;;;;;;;27.00;18.58;;;5.50;99.90;;;;;;6229313;23;20258;-80
2023/01/09 06:23:59;;;;;;;27.75;17.58;;;5.50;99.90;;;;;;6231734;23;20178;-80
2023/01/09 06:26:27;;;;;;;26.58;18.10;;;5.60;99.90;;;;;;6229357;23;20207;-80
2023/01/09 06:28:54;;;;;;;26.17;18.63;;;5.60;1.00;;;;;;6227656;23;20206;-80
2023/01/09 06:31:21;;;;;;;23.67;16.42;;;5.60;1.00;;;;;;6226904;23;20179;-80
2023/01/09 06:33:48;;;;;;;24.75;16.92;;;5.50;1.00;;;;;;6226340;23;20175;-80
2023/01/09 06:36:15;;;;;;;26.27;17.50;;;5.50;1.00;;;;;;6228080;23;20555;-81
2023/01/09 06:38:42;;;;;;;23.23;16.65;;;5.50;1.00;;;;;;6225765;23;20246;-79
2023/01/09 06:41:09;;;;;;;24.92;16.90;;;5.50;1.00;;;;;;6227453;23;20700;-81
2023/01/09 06:43:37;;;;;;;26.27;16.55;;;5.50;1.00;;;;;;6227544;23;20179;-80
2023/01/09 06:46:05;;;;;;;25.52;17.58;;;5.50;1.00;;;;;;6232636;23;20179;-79
2023/01/09 06:48:32;;;;;;;29.45;16.63;;;5.50;1.00;;;;;;6243287;22;20210;-82
2023/01/09 06:50:59;;;;;;;31.48;18.63;;;5.50;1.00;;;;;;6235401;23;20235;-80
2023/01/09 06:53:26;;;;;;;29.17;18.00;;;5.50;1.00;;;;;;6229200;23;20239;-80
2023/01/09 06:55:53;;;;;;;28.10;18.77;;;5.50;1.00;;;;;;6227864;23;20258;-81
2023/01/09 06:58:19;;;;;;;29.98;18.08;;;5.50;1.00;;;;;;6227006;23;20203;-83
2023/01/09 07:00:48;;;;;;;33.92;17.75;;;5.80;1.00;;;;;;6226248;23;20210;-82
2023/01/09 07:03:18;;;;;;;26.58;17.45;;;5.50;1.00;;;;;;6228084;23;20179;-81
2023/01/09 07:05:46;;;;;;;32.90;17.95;;;5.50;1.00;;;;;;6229452;23;20179;-81
2023/01/09 07:08:13;;;;;;;27.20;17.92;;;5.50;1.00;;;;;;6231019;23;20233;-81
2023/01/09 07:10:40;;;;;;;27.10;17.65;;;5.50;1.00;;;;;;6230215;23;20181;-80
2023/01/09 07:13:07;;;;;;;30.30;18.13;;;5.50;1.00;;;;;;6234184;23;20214;-81
2023/01/09 07:15:34;;;;;;;24.98;17.92;;;5.50;1.00;;;;;;6229911;23;20202;-81
2023/01/09 07:18:02;;;;;;;32.22;17.58;;;5.50;1.00;;;;;;6231003;23;20199;-80
2023/01/09 07:20:29;;;;;;;31.75;20.80;;;5.50;1.00;;;;;;6229161;23;20206;-81
2023/01/09 07:22:56;;;;;;;31.05;19.35;;;5.50;1.00;;;;;;6229217;23;20186;-83
2023/01/09 07:25:23;;;;;;;30.38;19.27;;;5.50;1.00;;;;;;6230433;23;20179;-81
2023/01/09 07:27:50;;;;;;;25.85;18.05;;;5.50;1.00;;;;;;6230566;23;20582;-82
2023/01/09 07:30:18;;;;;;;30.58;17.42;;;5.60;1.00;;;;;;6232580;23;20195;-80
2023/01/09 07:32:44;;;;;;;30.35;20.27;;;5.50;1.00;;;;;;6239962;23;20179;-79
2023/01/09 07:35:12;;;;;;;27.13;16.65;;;5.60;1.00;;;;;;6234840;23;20183;-81
2023/01/09 07:37:39;;;;;;;28.33;19.50;;;5.90;1.00;;;;;;6231020;23;20233;-81
2023/01/09 07:40:08;;;;;;;29.33;19.88;;;5.60;1.00;;;;;;6230725;23;20171;-81
2023/01/09 07:42:34;;;;;;;23.65;15.38;;;5.60;1.00;;;;;;6231882;23;20187;-82
2023/01/09 07:45:04;;;;;;;23.77;16.10;;;5.70;1.00;;;;;;6231704;23;20239;-81
2023/01/09 07:47:30;;;;;;;24.55;16.55;;;5.70;1.00;;;;;;6230702;23;20199;-82
2023/01/09 07:49:57;;;;;;;25.15;16.88;;;5.70;1.00;;;;;;6236936;23;20218;-80
2023/01/09 07:52:26;;;;;;;25.13;16.50;;;5.70;1.00;;;;;;6237386;23;20207;-80
2023/01/09 07:54:55;;;;;;;21.23;15.85;;;5.80;1.00;;;;;;6229413;23;20255;-80
2023/01/09 07:57:22;;;;;;;27.60;18.17;;;5.80;1.00;;;;;;6228675;23;20214;-81
2023/01/09 07:59:49;;;;;;;32.30;17.40;;;5.80;1.00;;;;;;6229371;23;20215;-82
2023/01/09 08:02:16;;;;;;;29.75;19.60;;;5.80;1.00;;;;;;6236953;23;20179;-78
2023/01/09 08:04:44;;;;;;;27.10;17.20;;;5.80;1.00;;;;;;6215251;23;20180;-80
2023/01/09 08:07:11;;;;;;;28.88;17.65;;;5.70;1.00;;;;;;6235453;23;20206;-82
2023/01/09 08:09:39;;;;;;;26.52;17.45;;;5.80;1.00;;;;;;6233706;23;20206;-79
2023/01/09 08:12:06;;;;;;;26.38;17.42;;;5.80;1.00;;;;;;6240873;23;20179;-79
2023/01/09 08:14:34;;;;;;;32.33;17.60;;;5.90;1.00;;;;;;6242824;23;20179;-79
2023/01/09 08:17:01;;;;;;;51.90;29.92;;;6.10;1.00;;;;;;6239263;23;20269;-79
2023/01/09 08:19:28;;;;;;;26.27;16.38;;;5.80;1.00;;;;;;6235074;23;20260;-80
2023/01/09 08:21:55;;;;;;;26.42;16.50;;;5.90;1.00;;;;;;6233720;23;20199;-80
2023/01/09 08:24:22;;;;;;;30.95;19.35;;;5.90;1.00;;;;;;6231767;23;20183;-82
2023/01/09 08:26:50;;;;;;;27.33;17.95;;;5.90;1.00;;;;;;6235459;23;20179;-82
2023/01/09 08:29:17;;;;;;;30.60;18.33;;;6.00;1.00;;;;;;6237755;22;20267;-80
2023/01/09 08:31:44;;;;;;;30.42;18.20;;;6.00;1.00;;;;;;6245091;22;20182;-83
2023/01/09 08:34:10;;;;;;;31.90;18.70;;;5.70;1.00;;;;;;6245095;22;20166;-84
2023/01/09 08:36:37;;;;;;;26.45;18.27;;;6.00;1.00;;;;;;6245306;22;20144;-81
2023/01/09 08:39:04;;;;;;;26.63;18.73;;;5.90;1.00;;;;;;6245280;22;20185;-83
2023/01/09 08:47:06;;;;;;;25.95;16.90;;;5.90;1.00;;;;;;6202803;23;20182;-84
2023/01/09 08:49:33;;;;;;;25.08;15.85;;;6.10;1.00;;;;;;6236026;23;20190;-85
2023/01/09 08:52:00;;;;;;;24.63;16.60;;;6.10;1.00;;;;;;6236096;23;20186;-84
2023/01/09 08:54:27;;;;;;;24.67;16.23;;;6.10;1.00;;;;;;6236090;23;20198;-84
2023/01/09 08:56:54;;;;;;;25.33;16.20;;;6.20;1.00;;;;;;6239200;23;20186;-83
2023/01/09 08:59:22;;;;;;;24.30;16.40;;;6.20;1.00;;;;;;6238330;23;20203;-85
2023/01/09 09:01:49;;;;;;;26.05;16.55;;;6.10;1.00;;;;;;6239628;23;20217;-84
2023/01/09 09:04:16;;;;;;;19.02;16.02;;;6.20;1.00;;;;;;6239339;23;20204;-86
2023/01/09 09:06:43;;;;;;;25.23;15.70;;;6.20;1.00;;;;;;6238213;23;20187;-86
2023/01/09 09:09:11;;;;;;;21.60;16.98;;;6.30;1.00;;;;;;6239106;23;20203;-86
2023/01/09 09:11:38;;;;;;;27.00;18.65;;;6.30;1.00;;;;;;6237702;23;20187;-85
2023/01/09 09:15:11;;;;;;;23.20;16.65;;;6.30;1.00;;;;;;6237208;23;20171;-84
2023/01/09 09:16:54;;;;;;;26.13;15.02;;;6.30;1.00;;;;;;6237024;23;20194;-84
2023/01/09 09:19:21;;;;;;;24.70;15.93;;;6.30;1.00;;;;;;6237189;23;20215;-84
2023/01/09 09:21:48;;;;;;;24.23;16.80;;;6.40;1.00;;;;;;6237464;23;20190;-82
2023/01/09 09:24:15;;;;;;;29.77;17.55;;;6.40;1.00;;;;;;6234544;23;20628;-83
2023/01/09 09:26:42;;;;;;;22.48;15.45;;;6.40;1.00;;;;;;6233322;23;20179;-83
2023/01/09 09:29:09;;;;;;;23.27;16.77;;;6.40;1.00;;;;;;6234212;23;20218;-82
2023/01/09 09:31:37;;;;;;;22.48;16.05;;;6.50;1.00;;;;;;6241214;23;20147;-80
2023/01/09 09:34:05;;;;;;;21.77;16.00;;;6.40;1.00;;;;;;6242324;23;20182;-81
2023/01/09 09:36:32;;;;;;;22.67;15.52;;;6.50;1.00;;;;;;6242903;22;20155;-82
2023/01/09 09:38:59;;;;;;;24.98;17.73;;;6.50;1.00;;;;;;6242751;23;20195;-81
2023/01/09 09:44:42;;;;;;;24.63;15.30;;;6.50;1.00;;;;;;6234009;23;20162;-82
2023/01/09 09:47:20;;;;;;;24.70;14.93;;;6.30;1.00;;;;;;6236086;23;20163;-83
2023/01/09 09:50:01;;;;;;;23.35;17.23;;;6.50;1.00;;;;;;6242820;23;20208;-80
2023/01/09 09:52:36;;;;;;;20.83;16.25;;;6.70;1.00;;;;;;6242270;23;20164;-84
2023/01/09 09:55:15;;;;;;;25.65;17.77;;;6.70;1.00;;;;;;6236024;23;20190;-84
2023/01/09 09:57:43;;;;;;;24.63;14.75;;;6.70;1.00;;;;;;6235113;23;20211;-83
2023/01/09 10:00:16;;;;;;;22.08;15.68;;;6.70;1.00;;;;;;6241366;23;20163;-83
2023/01/09 10:02:50;;;;;;;28.83;17.30;;;6.80;1.00;;;;;;6243772;22;20148;-83
2023/01/09 10:05:25;;;;;;;20.65;15.95;;;6.80;1.00;;;;;;6233211;23;20152;-84
2023/01/09 10:07:53;;;;;;;18.33;13.63;;;6.90;1.00;;;;;;6232398;23;20199;-83
2023/01/09 10:10:32;;;;;;;24.70;14.60;;;6.90;1.00;;;;;;6233619;23;20202;-82
2023/01/09 10:14:03;;;;;;;19.73;14.10;;;7.00;1.00;;;;;;6238532;23;20270;-83
2023/01/09 10:16:00;;;;;;;16.80;13.90;;;7.00;1.00;;;;;;6233085;23;20179;-85
2023/01/09 10:18:36;;;;;;;20.30;14.27;;;7.10;1.00;;;;;;6236262;23;20206;-83
2023/01/09 10:21:11;;;;;;;18.58;11.48;;;7.10;1.00;;;;;;6234149;23;20159;-84
2023/01/09 10:24:10;;;;;;;15.93;11.25;;;7.20;1.00;;;;;;6232359;23;20182;-83
2023/01/09 10:26:42;;;;;;;16.00;11.48;;;7.20;1.00;;;;;;6233638;23;20187;-83
2023/01/09 10:29:30;;;;;;;14.75;10.70;;;7.30;1.00;;;;;;6234005;23;20207;-84
2023/01/09 10:32:11;;;;;;;16.25;11.00;;;7.30;1.00;;;;;;6229970;23;20179;-85
2023/01/09 10:34:49;;;;;;;16.80;11.45;;;7.70;1.00;;;;;;6232659;23;20177;-85
2023/01/09 10:37:21;;;;;;;22.77;12.38;;;7.30;1.00;;;;;;6233191;23;20187;-84
2023/01/09 10:39:54;;;;;;;16.40;11.18;;;7.40;1.00;;;;;;6233095;23;20159;-83
2023/01/09 10:42:29;;;;;;;14.40;11.88;;;7.40;1.00;;;;;;6233872;23;20175;-84
2023/01/09 10:45:01;;;;;;;12.97;9.53;;;7.50;1.00;;;;;;6232694;23;20552;-84
2023/01/09 10:47:33;;;;;;;13.40;10.13;;;7.40;1.00;;;;;;6234171;23;20808;-84
2023/01/09 10:50:01;;;;;;;13.65;10.82;;;7.50;1.00;;;;;;6238469;22;20175;-84
2023/01/09 10:52:35;;;;;;;12.13;10.15;;;7.50;1.00;;;;;;6242568;22;20186;-84
2023/01/09 10:55:13;;;;;;;13.30;8.40;;;7.50;1.00;;;;;;6229476;23;20198;-85
2023/01/09 10:57:43;;;;;;;13.90;9.98;;;7.50;1.00;;;;;;6228335;23;20234;-85
2023/01/09 11:00:20;;;;;;;14.68;10.63;;;7.50;1.00;;;;;;6229659;23;20206;-85
2023/01/09 11:02:48;;;;;;;11.73;9.82;;;7.60;1.00;;;;;;6232610;23;20163;-83
2023/01/09 11:05:19;;;;;;;12.90;9.15;;;7.60;1.00;;;;;;6236572;23;20183;-86
2023/01/09 11:07:51;;;;;;;11.63;9.65;;;7.60;1.00;;;;;;6234184;23;20198;-84
2023/01/09 11:10:18;;;;;;;13.80;9.73;;;7.60;1.00;;;;;;6234982;23;20179;-85
2023/01/09 11:12:47;;;;;;;12.95;8.63;;;7.70;1.00;;;;;;6244123;22;20430;-83
2023/01/09 11:15:31;;;;;;;13.68;9.52;;;7.60;1.00;;;;;;6240851;22;20194;-85
2023/01/09 11:18:23;;;;;;;14.40;10.73;;;7.60;1.00;;;;;;6233751;23;20588;-83
2023/01/09 11:20:50;;;;;;;12.45;9.90;;;7.60;1.00;;;;;;6232169;23;20156;-86
2023/01/09 11:23:30;;;;;;;10.60;8.85;;;7.60;1.00;;;;;;6233043;23;20209;-85
2023/01/09 11:25:59;;;;;;;10.15;7.22;;;7.70;1.00;;;;;;6261812;22;20214;-84
2023/01/09 11:28:27;;;;;;;9.00;8.15;;;7.40;1.00;;;;;;6271025;22;20186;-84
2023/01/09 11:30:58;;;;;;;8.90;7.60;;;7.60;1.00;;;;;;6263752;22;20278;-86
2023/01/09 11:33:27;;;;;;;8.23;7.00;;;7.60;1.00;;;;;;6267706;22;20151;-83
2023/01/09 11:36:04;;;;;;;8.57;7.25;;;8.00;1.00;;;;;;6247691;22;20198;-83
2023/01/09 11:38:47;;;;;;;6.63;5.43;;;7.60;1.00;;;;;;6241562;23;20148;-84
2023/01/09 11:41:19;;;;;;;8.50;6.80;;;7.70;1.00;;;;;;6242314;22;20168;-83
2023/01/09 11:43:48;;;;;;;7.32;6.03;;;7.70;99.90;;;;;;6243235;23;20425;-83
2023/01/09 11:46:32;;;;;;;7.63;6.15;;;7.90;99.90;;;;;;6242521;22;20191;-83
2023/01/09 11:49:00;;;;;;;6.40;5.80;;;7.80;99.90;;;;;;6242557;22;20159;-84
2023/01/09 11:51:29;;;;;;;6.50;5.25;;;8.00;99.90;;;;;;6244985;22;20446;-83
2023/01/09 11:54:06;;;;;;;6.13;5.53;;;7.60;99.90;;;;;;6244173;22;20179;-83
2023/01/09 11:56:33;;;;;;;6.10;5.53;;;7.90;99.90;;;;;;6242174;23;20171;-83
2023/01/09 11:59:00;;;;;;;6.13;5.20;;;7.90;99.90;;;;;;6242508;22;20210;-83
2023/01/09 12:01:54;;;;;;;7.07;5.53;;;7.70;99.90;;;;;;6241327;23;20405;-82
2023/01/09 12:04:27;;;;;;;7.18;5.38;;;8.00;99.90;;;;;;6242672;23;20221;-82
2023/01/09 12:07:17;;;;;;;5.50;5.00;;;8.10;99.90;;;;;;6242371;23;20572;-82
2023/01/09 12:09:56;;;;;;;5.17;4.67;;;8.10;99.90;;;;;;6217956;23;20450;-83
2023/01/09 12:12:30;;;;;;;6.85;5.15;;;8.20;99.90;;;;;;6234745;23;20389;-82
2023/01/09 12:15:08;;;;;;;6.68;3.97;;;8.20;1.00;;;;;;6237475;23;20222;-83
2023/01/09 12:17:55;;;;;;;6.15;3.80;;;8.10;1.00;;;;;;6237804;23;20220;-83
2023/01/09 12:20:30;;;;;;;6.80;4.78;;;8.00;1.00;;;;;;6236473;23;20156;-82
2023/01/09 12:23:07;;;;;;;3.88;3.30;;;8.00;1.00;;;;;;6231614;23;20167;-83
2023/01/09 12:25:49;;;;;;;6.03;4.50;;;8.00;1.00;;;;;;6231313;23;20257;-84
2023/01/09 12:28:52;;;;;;;4.60;4.20;;;7.90;1.00;;;;;;6233763;23;20410;-84
2023/01/09 12:31:32;;;;;;;4.10;3.80;;;7.90;1.00;;;;;;6233941;23;20210;-84
2023/01/09 12:34:12;;;;;;;4.60;4.20;;;8.60;1.00;;;;;;6233318;23;20156;-84
2023/01/09 12:36:47;;;;;;;4.25;3.95;;;7.90;1.00;;;;;;6230970;23;20163;-83
2023/01/09 12:39:25;;;;;;;5.20;4.70;;;7.90;1.00;;;;;;6231297;23;20156;-84
2023/01/09 12:42:05;;;;;;;4.27;3.73;;;7.90;1.00;;;;;;6231860;23;20194;-82
2023/01/09 12:44:48;;;;;;;3.80;3.43;;;7.90;1.00;;;;;;6230529;23;20500;-85
2023/01/09 12:47:43;;;;;;;10.67;4.50;;;8.10;1.00;;;;;;6231535;23;20368;-84
2023/01/09 12:50:38;;;;;;;4.68;3.67;;;8.00;1.00;;;;;;6229359;23;20428;-84
2023/01/09 12:53:14;;;;;;;9.63;3.70;;;7.90;1.00;;;;;;6204113;23;20227;-85
2023/01/09 12:55:44;;;;;;;8.43;3.50;;;8.10;1.00;;;;;;6232790;23;20210;-84
2023/01/09 12:58:29;;;;;;;7.80;3.50;;;7.90;1.00;;;;;;6234112;23;20217;-84
2023/01/09 13:00:57;;;;;;;5.67;3.70;;;7.80;1.00;;;;;;6235139;23;20211;-84
2023/01/09 13:03:30;;;;;;;4.18;3.58;;;7.80;1.00;;;;;;6228556;23;20402;-84
2023/01/09 13:05:58;;;;;;;6.20;3.83;;;8.00;1.00;;;;;;6227254;23;20203;-84
2023/01/09 13:08:30;;;;;;;8.43;4.22;;;7.80;1.00;;;;;;6226065;23;20412;-84
2023/01/09 13:11:03;;;;;;;7.60;4.47;;;8.00;1.00;;;;;;6225973;23;20215;-85
2023/01/09 13:13:36;;;;;;;4.38;3.50;;;7.90;1.00;;;;;;6226946;23;20401;-85
2023/01/09 13:16:08;;;;;;;6.47;4.10;;;8.00;1.00;;;;;;6225583;23;20278;-85